createdAt,value
2023-03-20T00:01:00.711Z,34.00
2023-03-20T00:06:02.151Z,36.40
2023-03-20T00:11:03.616Z,33.47
2023-03-20T00:16:05.922Z,33.40
2023-03-20T00:21:17.242Z,33.00
2023-03-20T00:26:19.782Z,34.35
2023-03-20T00:31:25.698Z,33.40
2023-03-20T00:36:28.186Z,31.98
2023-03-20T00:41:39.638Z,31.40
2023-03-20T00:46:41.546Z,30.58
2023-03-20T00:51:42.986Z,30.00
2023-03-20T00:57:03.900Z,28.83
2023-03-20T01:02:06.234Z,28.98
2023-03-20T01:07:12.485Z,27.17
2023-03-20T01:12:15.325Z,26.55
2023-03-20T01:17:22.630Z,27.40
2023-03-20T01:22:24.085Z,26.52
2023-03-20T01:27:25.644Z,26.85
2023-03-20T01:32:27.158Z,26.77
2023-03-20T01:37:28.642Z,26.10
2023-03-20T01:42:30.427Z,25.30
2023-03-20T01:47:31.966Z,25.13
2023-03-20T01:52:33.451Z,24.48
2023-03-20T01:57:34.910Z,24.67
2023-03-20T02:02:38.705Z,23.67
2023-03-20T02:07:40.994Z,23.77
2023-03-20T02:12:44.038Z,21.90
2023-03-20T02:17:45.874Z,21.25
2023-03-20T02:23:24.427Z,19.52
2023-03-20T02:28:59.838Z,20.00
2023-03-20T02:34:29.658Z,21.83
2023-03-20T02:39:58.707Z,20.77
2023-03-20T02:45:16.707Z,21.75
2023-03-20T02:50:23.971Z,21.33
2023-03-20T02:55:35.607Z,21.70
2023-03-20T03:00:54.650Z,21.48
2023-03-20T03:06:00.399Z,22.48
2023-03-20T03:11:06.425Z,21.95
2023-03-20T03:16:15.724Z,19.92
2023-03-20T03:21:18.659Z,20.65
2023-03-20T03:26:27.674Z,19.88
2023-03-20T03:31:30.980Z,19.30
2023-03-20T03:36:44.687Z,19.30
2023-03-20T03:42:03.686Z,19.02
2023-03-20T03:47:21.500Z,18.60
2023-03-20T03:52:25.440Z,17.77
2023-03-20T03:57:36.546Z,17.98
2023-03-20T04:02:38.629Z,18.77
2023-03-20T04:07:40.332Z,18.67
2023-03-20T04:12:44.234Z,18.40
2023-03-20T04:17:46.114Z,18.60
2023-03-20T04:22:47.606Z,17.48
2023-03-20T04:27:49.330Z,20.30
2023-03-20T04:32:50.789Z,19.25
2023-03-20T04:37:52.288Z,19.52
2023-03-20T04:42:53.702Z,18.20
2023-03-20T04:47:55.327Z,17.33
2023-03-20T04:52:56.757Z,16.60
2023-03-20T04:57:58.200Z,16.30
2023-03-20T05:03:00.447Z,15.13
2023-03-20T05:08:01.882Z,14.85
2023-03-20T05:13:03.302Z,14.30
2023-03-20T05:18:04.757Z,13.55
2023-03-20T05:23:06.593Z,16.38
2023-03-20T05:28:08.160Z,14.77
2023-03-20T05:33:09.601Z,15.00
2023-03-20T05:38:11.184Z,15.00
2023-03-20T05:43:12.607Z,13.70
2023-03-20T05:48:14.023Z,13.88
2023-03-20T05:53:16.350Z,15.30
2023-03-20T05:58:17.823Z,14.48
2023-03-20T06:03:19.714Z,14.10
2023-03-20T06:08:21.162Z,14.18
2023-03-20T06:13:22.600Z,14.45
2023-03-20T06:18:24.040Z,13.95
2023-03-20T06:23:25.465Z,13.38
2023-03-20T06:28:26.881Z,13.93
2023-03-20T06:33:28.931Z,14.30
2023-03-20T06:38:30.697Z,14.77
2023-03-20T06:43:32.127Z,14.73
2023-03-20T06:48:33.582Z,14.98
2023-03-20T06:53:35.213Z,13.43
2023-03-20T06:58:36.628Z,14.27
2023-03-20T07:03:38.061Z,15.13
2023-03-20T07:08:40.042Z,13.60
2023-03-20T07:13:41.687Z,14.43
2023-03-20T07:18:43.130Z,14.65
2023-03-20T07:23:44.965Z,14.82
2023-03-20T07:28:46.383Z,15.43
2023-03-20T07:33:47.984Z,15.02
2023-03-20T07:38:49.438Z,15.48
2023-03-20T07:43:51.106Z,15.85
2023-03-20T07:48:52.666Z,14.90
2023-03-20T07:53:54.110Z,15.65
2023-03-20T07:58:55.552Z,16.27
2023-03-20T08:03:57.166Z,16.95
2023-03-20T08:08:58.649Z,17.38
2023-03-20T08:14:00.112Z,19.23
2023-03-20T08:19:02.838Z,18.95
2023-03-20T08:24:04.579Z,18.85
2023-03-20T08:29:06.249Z,20.45
2023-03-20T08:34:07.756Z,19.35
2023-03-20T08:39:09.647Z,20.30
2023-03-20T08:44:12.019Z,20.38
2023-03-20T08:49:13.805Z,18.70
2023-03-20T08:54:18.273Z,18.30
2023-03-20T08:59:19.748Z,18.10
2023-03-20T09:04:21.195Z,19.13
2023-03-20T09:09:29.215Z,19.08
2023-03-20T09:14:30.986Z,19.42
2023-03-20T09:19:32.433Z,18.92
2023-03-20T09:24:33.907Z,17.45
2023-03-20T09:29:35.714Z,18.77
2023-03-20T09:34:37.196Z,17.58
2023-03-20T09:39:38.611Z,16.92
2023-03-20T09:45:08.384Z,17.75
2023-03-20T09:50:25.945Z,14.05
2023-03-20T09:55:36.359Z,14.68
2023-03-20T10:00:40.412Z,13.68
2023-03-20T10:05:49.798Z,13.98
2023-03-20T10:11:16.227Z,12.50
2023-03-20T10:16:35.782Z,13.73
2023-03-20T10:21:44.259Z,13.43
2023-03-20T10:26:48.845Z,13.20
2023-03-20T10:32:13.431Z,14.05
2023-03-20T10:37:27.037Z,12.25
2023-03-20T10:42:33.721Z,11.45
2023-03-20T10:47:39.395Z,11.38
2023-03-20T10:52:42.169Z,10.95
2023-03-20T10:57:49.256Z,11.60
2023-03-20T11:02:50.939Z,9.68
2023-03-20T11:08:02.079Z,10.82
2023-03-20T11:13:38.293Z,10.88
2023-03-20T11:18:42.080Z,10.02
2023-03-20T11:23:43.667Z,7.45
2023-03-20T11:28:58.729Z,7.28
2023-03-20T11:34:15.423Z,8.23
2023-03-20T11:39:34.133Z,8.70
2023-03-20T11:44:36.823Z,8.18
2023-03-20T11:49:52.857Z,10.35
2023-03-20T11:54:59.125Z,12.23
2023-03-20T12:00:07.217Z,11.40
2023-03-20T12:05:28.909Z,11.83
2023-03-20T12:10:37.187Z,11.93
2023-03-20T12:15:43.508Z,11.75
2023-03-20T12:21:02.032Z,11.93
2023-03-20T12:26:15.678Z,12.13
2023-03-20T12:31:30.745Z,12.75
2023-03-20T12:36:35.937Z,13.52
2023-03-20T12:41:57.467Z,13.02
2023-03-20T12:47:39.925Z,13.05
2023-03-20T12:53:11.719Z,12.70
2023-03-20T12:58:43.970Z,13.02
2023-03-20T13:04:03.919Z,13.25
2023-03-20T13:09:16.211Z,11.95
2023-03-20T13:14:24.429Z,11.48
2023-03-20T13:19:37.981Z,9.38
2023-03-20T13:24:50.618Z,12.27
2023-03-20T13:30:34.568Z,11.05
2023-03-20T13:35:51.103Z,5.00
2023-03-20T13:41:00.718Z,2.63
2023-03-20T13:46:09.847Z,2.10
2023-03-20T13:51:29.147Z,1.98
2023-03-20T13:57:08.188Z,2.40
2023-03-20T14:02:38.393Z,3.05
2023-03-20T14:07:44.535Z,2.85
2023-03-20T14:12:49.465Z,3.67
2023-03-20T14:17:52.181Z,3.88
2023-03-20T14:22:53.644Z,4.75
2023-03-20T14:28:13.522Z,5.15
2023-03-20T14:33:14.970Z,7.05
2023-03-20T14:38:35.942Z,8.63
2023-03-20T14:43:52.660Z,5.55
2023-03-20T14:48:55.985Z,4.30
2023-03-20T14:54:24.287Z,4.47
2023-03-20T14:59:25.807Z,6.75
2023-03-20T15:04:29.036Z,4.00
2023-03-20T15:09:34.899Z,2.80
2023-03-20T15:14:43.642Z,2.35
2023-03-20T15:19:45.157Z,2.80
2023-03-20T15:24:55.712Z,2.30
2023-03-20T15:30:00.261Z,3.10
2023-03-20T15:35:04.841Z,2.95
2023-03-20T15:40:49.214Z,4.15
2023-03-20T15:46:14.109Z,3.25
2023-03-20T15:51:21.407Z,3.50
2023-03-20T15:56:27.592Z,3.08
2023-03-20T16:01:31.985Z,3.10
2023-03-20T16:06:33.480Z,2.45
2023-03-20T16:11:38.306Z,2.50
2023-03-20T16:16:40.481Z,2.72
2023-03-20T16:21:47.652Z,2.60
2023-03-20T16:26:51.575Z,2.70
2023-03-20T16:32:05.937Z,2.80
2023-03-20T16:37:22.835Z,3.53
2023-03-20T16:42:28.042Z,3.42
2023-03-20T16:47:38.398Z,3.60
2023-03-20T16:52:47.164Z,3.40
2023-03-20T16:57:51.452Z,3.30
2023-03-20T17:03:01.353Z,4.13
2023-03-20T17:08:12.472Z,4.55
2023-03-20T17:13:15.164Z,4.15
2023-03-20T17:18:16.627Z,5.07
2023-03-20T17:23:21.951Z,4.65
2023-03-20T17:28:31.260Z,4.18
2023-03-20T17:33:33.713Z,4.75
2023-03-20T17:38:35.803Z,5.15
2023-03-20T17:43:37.293Z,5.63
2023-03-20T17:48:39.212Z,5.35
2023-03-20T17:53:40.877Z,4.93
2023-03-20T17:58:44.715Z,4.63
2023-03-20T18:03:46.192Z,6.25
2023-03-20T18:08:47.647Z,5.82
2023-03-20T18:13:49.254Z,5.78
2023-03-20T18:18:51.493Z,6.43
2023-03-20T18:23:52.961Z,6.20
2023-03-20T18:28:55.606Z,6.15
2023-03-20T18:33:57.178Z,6.80
2023-03-20T18:38:58.900Z,7.05
2023-03-20T18:44:00.385Z,8.40
2023-03-20T18:49:01.837Z,8.13
2023-03-20T18:54:03.395Z,7.57
2023-03-20T18:59:07.772Z,9.73
2023-03-20T19:04:09.406Z,7.85
2023-03-20T19:09:12.159Z,7.22
2023-03-20T19:14:14.159Z,9.88
2023-03-20T19:19:15.935Z,9.50
2023-03-20T19:24:21.460Z,10.23
2023-03-20T19:29:23.043Z,10.05
2023-03-20T19:35:14.504Z,10.52
2023-03-20T19:39:46.075Z,8.43
2023-03-20T19:44:47.523Z,8.52
2023-03-20T19:49:48.961Z,8.68
2023-03-20T19:55:02.106Z,8.30
2023-03-20T20:00:55.768Z,9.27
2023-03-20T20:05:31.137Z,9.32
2023-03-20T20:10:41.033Z,10.40
2023-03-20T20:15:42.457Z,10.77
2023-03-20T20:21:28.520Z,10.85
2023-03-20T20:26:09.457Z,11.57
2023-03-20T20:31:10.976Z,11.25
2023-03-20T20:37:17.377Z,11.40
2023-03-20T20:41:34.697Z,12.02
2023-03-20T20:46:36.122Z,11.73
2023-03-20T20:51:37.733Z,13.50
2023-03-20T20:56:40.886Z,13.48
2023-03-20T21:01:42.619Z,14.73
2023-03-20T21:07:08.593Z,14.27
2023-03-20T21:12:06.208Z,15.15
2023-03-20T21:17:09.631Z,15.88
2023-03-20T21:22:13.317Z,15.57
2023-03-20T21:27:15.457Z,16.63
2023-03-20T21:32:19.820Z,16.33
2023-03-20T21:38:22.968Z,15.95
2023-03-20T21:42:42.874Z,15.07
2023-03-20T21:48:33.417Z,16.05
2023-03-20T21:53:56.894Z,14.68
2023-03-20T22:04:45.084Z,15.02
2023-03-20T22:15:20.100Z,14.35
2023-03-20T22:25:53.130Z,16.02
2023-03-20T22:37:01.415Z,15.15
2023-03-20T22:46:46.364Z,16.33
2023-03-20T22:52:07.806Z,16.85
2023-03-20T22:57:09.866Z,16.80
2023-03-20T23:02:11.525Z,17.73
2023-03-20T23:07:13.056Z,17.63
2023-03-20T23:12:14.516Z,18.65
2023-03-20T23:17:15.983Z,17.73
2023-03-20T23:22:17.447Z,18.13
2023-03-20T23:27:19.922Z,20.13
2023-03-20T23:32:21.377Z,21.33
2023-03-20T23:37:23.468Z,21.48
2023-03-20T23:42:30.630Z,21.80
2023-03-20T23:47:43.889Z,22.73
2023-03-20T23:52:57.225Z,22.88
2023-03-20T23:58:02.764Z,22.10
